Time;durP1;ratioP1;P1;durP2;ratioP2;P2;SDS_P1;SDS_P2;PMS_P1;PMS_P2;Temp;Humidity;BMP_temperature;BMP_pressure;BME280_temperature;BME280_humidity;BME280_pressure;Samples;Min_cycle;Max_cycle;Signal;HPM_P1;HPM_P2
2023/04/06 00:00:28;;;;;;;12.60;12.30;;;;;;;;;;4244826;28;20034;-58
2023/04/06 00:02:48;;;;;;;11.63;11.18;;;;;;;;;;4248067;28;20277;-58
2023/04/06 00:05:09;;;;;;;13.48;13.02;;;;;;;;;;4249327;28;20108;-58
2023/04/06 00:07:29;;;;;;;11.07;10.77;;;;;;;;;;4247359;28;20099;-58
2023/04/06 00:09:49;;;;;;;11.82;11.52;;;;;;;;;;4250285;28;20357;-58
2023/04/06 00:12:09;;;;;;;12.88;12.40;;;;;;;;;;4249550;28;20050;-59
2023/04/06 00:14:30;;;;;;;14.38;13.75;;;;;;;;;;4252344;28;20046;-58
2023/04/06 00:16:50;;;;;;;15.05;14.43;;;;;;;;;;4245316;28;20092;-58
2023/04/06 00:19:11;;;;;;;15.30;14.38;;;;;;;;;;4251946;28;20085;-58
2023/04/06 00:21:31;;;;;;;15.10;14.02;;;;;;;;;;4246340;28;20405;-58
2023/04/06 00:23:52;;;;;;;15.38;14.77;;;;;;;;;;4246951;28;20076;-58
2023/04/06 00:26:12;;;;;;;14.57;13.98;;;;;;;;;;4252687;28;20092;-58
2023/04/06 00:28:32;;;;;;;14.10;13.57;;;;;;;;;;4237753;28;20058;-58
2023/04/06 00:30:55;;;;;;;12.98;12.50;;;;;;;;;;4245907;28;20088;-58
2023/04/06 00:33:16;;;;;;;15.15;14.25;;;;;;;;;;4246431;28;20392;-58
2023/04/06 00:35:36;;;;;;;14.85;14.52;;;;;;;;;;4246325;28;20126;-58
2023/04/06 00:37:57;;;;;;;12.63;12.32;;;;;;;;;;4249845;28;20129;-58
2023/04/06 00:40:17;;;;;;;14.40;13.25;;;;;;;;;;4246222;28;20054;-58
2023/04/06 00:42:37;;;;;;;14.43;13.80;;;;;;;;;;4253702;28;20046;-58
2023/04/06 00:44:58;;;;;;;14.60;13.85;;;;;;;;;;4247667;28;20112;-58
2023/04/06 00:47:18;;;;;;;15.13;14.68;;;;;;;;;;4250617;28;20046;-58
2023/04/06 00:49:38;;;;;;;12.90;12.27;;;;;;;;;;4245233;28;20089;-58
2023/04/06 00:51:59;;;;;;;12.98;12.73;;;;;;;;;;4246423;28;20091;-59
2023/04/06 00:54:19;;;;;;;14.00;13.52;;;;;;;;;;4246281;28;20243;-59
2023/04/06 00:56:39;;;;;;;13.88;13.05;;;;;;;;;;4246003;28;20053;-58
2023/04/06 00:58:59;;;;;;;14.55;14.10;;;;;;;;;;4248339;28;20078;-58
2023/04/06 01:01:20;;;;;;;12.73;12.25;;;;;;;;;;4247344;28;20080;-62
2023/04/06 01:03:42;;;;;;;11.52;11.18;;;;;;;;;;4244538;28;20077;-62
2023/04/06 01:06:02;;;;;;;14.40;14.00;;;;;;;;;;4247918;28;20046;-62
2023/04/06 01:08:22;;;;;;;13.32;12.98;;;;;;;;;;4249074;28;20091;-62
2023/04/06 01:10:42;;;;;;;14.00;13.23;;;;;;;;;;4248923;28;20227;-62
2023/04/06 01:13:02;;;;;;;13.90;13.25;;;;;;;;;;4253443;28;20042;-62
2023/04/06 01:15:23;;;;;;;14.88;14.40;;;;;;;;;;4246891;28;20047;-62
2023/04/06 01:17:43;;;;;;;14.45;13.95;;;;;;;;;;4247662;28;20242;-62
2023/04/06 01:20:03;;;;;;;14.85;13.50;;;;;;;;;;4245138;27;20361;-62
2023/04/06 01:22:25;;;;;;;14.88;14.32;;;;;;;;;;4246594;28;20050;-63
2023/04/06 01:24:47;;;;;;;12.82;12.52;;;;;;;;;;4246988;28;20081;-63
2023/04/06 01:27:07;;;;;;;14.70;14.20;;;;;;;;;;4245129;28;20046;-63
2023/04/06 01:29:27;;;;;;;14.32;13.82;;;;;;;;;;4244166;28;20077;-63
2023/04/06 01:31:47;;;;;;;13.10;12.80;;;;;;;;;;4249783;28;20046;-62
2023/04/06 01:34:08;;;;;;;12.88;12.50;;;;;;;;;;4245009;28;20042;-62
2023/04/06 01:36:28;;;;;;;13.40;12.75;;;;;;;;;;4247274;28;20081;-62
2023/04/06 01:38:48;;;;;;;14.30;13.38;;;;;;;;;;4249694;28;20406;-62
2023/04/06 01:41:09;;;;;;;14.77;14.18;;;;;;;;;;4247943;28;20066;-62
2023/04/06 01:43:29;;;;;;;13.10;12.57;;;;;;;;;;4250859;28;20058;-63
2023/04/06 01:45:49;;;;;;;14.05;13.57;;;;;;;;;;4248118;28;20043;-62
2023/04/06 01:48:09;;;;;;;13.30;12.90;;;;;;;;;;4250708;28;20054;-63
2023/04/06 01:50:30;;;;;;;13.93;13.32;;;;;;;;;;4250868;28;20118;-62
2023/04/06 01:52:50;;;;;;;12.77;12.38;;;;;;;;;;4250548;28;20093;-62
2023/04/06 01:55:10;;;;;;;12.85;12.50;;;;;;;;;;4245321;28;20060;-62
2023/04/06 01:57:30;;;;;;;13.13;12.77;;;;;;;;;;4246625;28;20456;-62
2023/04/06 01:59:50;;;;;;;13.15;12.25;;;;;;;;;;4251442;28;20396;-63
2023/04/06 02:02:12;;;;;;;13.02;12.10;;;;;;;;;;4246344;28;20058;-62
2023/04/06 02:04:33;;;;;;;14.32;13.32;;;;;;;;;;4248365;28;20037;-62
2023/04/06 02:06:53;;;;;;;13.85;13.35;;;;;;;;;;4250672;28;20066;-62
2023/04/06 02:09:15;;;;;;;15.18;14.00;;;;;;;;;;4245146;28;20074;-62
2023/04/06 02:11:35;;;;;;;15.90;15.25;;;;;;;;;;4248129;28;20042;-62
2023/04/06 02:13:56;;;;;;;13.48;12.98;;;;;;;;;;4247340;28;20050;-62
2023/04/06 02:16:16;;;;;;;13.82;13.35;;;;;;;;;;4245297;28;20054;-62
2023/04/06 02:18:36;;;;;;;12.82;12.40;;;;;;;;;;4243471;28;20162;-63
2023/04/06 02:20:56;;;;;;;14.55;13.85;;;;;;;;;;4247690;28;20119;-62
2023/04/06 02:23:17;;;;;;;13.65;13.25;;;;;;;;;;4246230;28;20366;-63
2023/04/06 02:25:37;;;;;;;14.15;13.43;;;;;;;;;;4246524;28;20054;-63
2023/04/06 02:27:57;;;;;;;13.98;13.45;;;;;;;;;;4245440;28;20080;-62
2023/04/06 02:30:17;;;;;;;16.50;15.60;;;;;;;;;;4246455;28;20234;-62
2023/04/06 02:32:37;;;;;;;14.40;13.75;;;;;;;;;;4244074;28;20051;-62
2023/04/06 02:34:57;;;;;;;14.95;14.23;;;;;;;;;;4251182;28;20062;-62
2023/04/06 02:37:18;;;;;;;13.13;12.75;;;;;;;;;;4245313;28;20108;-62
2023/04/06 02:39:38;;;;;;;11.38;11.07;;;;;;;;;;4243907;28;20038;-62
2023/04/06 02:41:58;;;;;;;14.05;13.43;;;;;;;;;;4240908;28;20055;-62
2023/04/06 02:44:19;;;;;;;13.40;12.75;;;;;;;;;;4248904;28;20089;-62
2023/04/06 02:46:40;;;;;;;15.10;14.35;;;;;;;;;;4249539;28;20108;-62
2023/04/06 02:49:00;;;;;;;13.02;12.63;;;;;;;;;;4245344;28;20343;-62
2023/04/06 02:51:21;;;;;;;14.23;13.73;;;;;;;;;;4242690;28;20236;-62
2023/04/06 02:53:41;;;;;;;14.93;14.32;;;;;;;;;;4242854;28;20034;-62
2023/04/06 02:56:01;;;;;;;19.60;18.90;;;;;;;;;;4242979;28;20042;-62
2023/04/06 02:58:21;;;;;;;27.52;26.65;;;;;;;;;;4252287;28;20047;-62
2023/04/06 03:00:42;;;;;;;27.38;26.27;;;;;;;;;;4243130;28;20047;-62
2023/04/06 03:03:02;;;;;;;15.65;15.00;;;;;;;;;;4246299;28;20051;-62
2023/04/06 03:05:22;;;;;;;14.38;13.88;;;;;;;;;;4249256;28;20080;-62
2023/04/06 03:07:42;;;;;;;13.00;12.60;;;;;;;;;;4244499;28;20365;-63
2023/04/06 03:10:03;;;;;;;17.73;16.90;;;;;;;;;;4242344;28;20239;-62
2023/04/06 03:12:23;;;;;;;15.13;14.70;;;;;;;;;;4247066;28;20041;-62
2023/04/06 03:14:44;;;;;;;17.40;16.42;;;;;;;;;;4249009;28;20097;-62
2023/04/06 03:17:04;;;;;;;30.30;29.30;;;;;;;;;;4246687;28;20071;-62
2023/04/06 03:19:24;;;;;;;30.98;29.55;;;;;;;;;;4242357;28;20066;-62
2023/04/06 03:21:45;;;;;;;34.67;33.33;;;;;;;;;;4249602;28;20130;-62
2023/04/06 03:24:06;;;;;;;28.13;27.23;;;;;;;;;;4245532;28;20038;-62
2023/04/06 03:26:26;;;;;;;27.55;26.50;;;;;;;;;;4249082;28;20047;-62
2023/04/06 03:28:47;;;;;;;33.75;32.15;;;;;;;;;;4242525;28;20109;-62
2023/04/06 03:31:07;;;;;;;32.00;30.80;;;;;;;;;;4241692;28;20057;-62
2023/04/06 03:33:27;;;;;;;33.05;31.40;;;;;;;;;;4243430;28;20077;-62
2023/04/06 03:35:47;;;;;;;30.27;29.30;;;;;;;;;;4245355;27;20276;-62
2023/04/06 03:38:07;;;;;;;17.90;16.85;;;;;;;;;;4243789;28;20141;-62
2023/04/06 03:40:28;;;;;;;14.20;13.20;;;;;;;;;;4244699;28;20038;-62
2023/04/06 03:42:48;;;;;;;15.60;14.75;;;;;;;;;;4242232;28;20054;-62
2023/04/06 03:45:08;;;;;;;14.60;13.93;;;;;;;;;;4247073;28;20046;-62
2023/04/06 03:47:28;;;;;;;16.60;15.82;;;;;;;;;;4249994;28;20114;-62
2023/04/06 03:49:49;;;;;;;19.77;18.65;;;;;;;;;;4248752;28;20039;-62
2023/04/06 03:52:09;;;;;;;21.88;21.05;;;;;;;;;;4256145;28;20400;-62
2023/04/06 03:54:29;;;;;;;18.67;17.45;;;;;;;;;;4246155;28;20038;-62
2023/04/06 03:56:49;;;;;;;16.00;15.52;;;;;;;;;;4251653;28;20318;-62
2023/04/06 03:59:09;;;;;;;14.68;14.05;;;;;;;;;;4248717;28;20052;-62
2023/04/06 04:01:30;;;;;;;16.52;15.70;;;;;;;;;;4249964;28;20281;-62
2023/04/06 04:03:51;;;;;;;14.35;14.10;;;;;;;;;;4249617;28;20038;-62
2023/04/06 04:06:11;;;;;;;13.77;13.38;;;;;;;;;;4250793;28;20046;-62
2023/04/06 04:08:32;;;;;;;22.45;21.55;;;;;;;;;;4251524;28;20103;-62
2023/04/06 04:10:52;;;;;;;18.88;17.98;;;;;;;;;;4250358;28;20047;-62
2023/04/06 04:13:12;;;;;;;19.80;19.08;;;;;;;;;;4250218;28;20077;-62
2023/04/06 04:15:32;;;;;;;16.90;16.45;;;;;;;;;;4251521;28;20042;-62
2023/04/06 04:17:52;;;;;;;24.75;23.77;;;;;;;;;;4250907;28;20042;-62
2023/04/06 04:20:12;;;;;;;27.20;26.02;;;;;;;;;;4250848;28;20043;-62
2023/04/06 04:22:32;;;;;;;25.80;24.80;;;;;;;;;;4250564;28;20054;-62
2023/04/06 04:24:52;;;;;;;19.08;18.35;;;;;;;;;;4248777;28;20141;-62
2023/04/06 04:27:13;;;;;;;18.23;17.48;;;;;;;;;;4249324;28;20109;-62
2023/04/06 04:29:33;;;;;;;24.85;23.38;;;;;;;;;;4248544;28;20045;-62
2023/04/06 04:31:53;;;;;;;20.38;19.58;;;;;;;;;;4250589;28;20422;-62
2023/04/06 04:34:15;;;;;;;25.60;24.33;;;;;;;;;;4247650;28;20046;-62
2023/04/06 04:36:35;;;;;;;20.33;19.63;;;;;;;;;;4248586;28;20045;-62
2023/04/06 04:38:55;;;;;;;34.95;33.45;;;;;;;;;;4248406;28;20209;-59
2023/04/06 04:41:16;;;;;;;21.10;20.05;;;;;;;;;;4250814;28;20239;-58
2023/04/06 04:43:36;;;;;;;24.33;23.23;;;;;;;;;;4247630;28;20093;-58
2023/04/06 04:45:56;;;;;;;17.02;16.13;;;;;;;;;;4249388;28;20054;-58
2023/04/06 04:48:16;;;;;;;16.90;16.38;;;;;;;;;;4248667;28;20082;-58
2023/04/06 04:50:36;;;;;;;23.10;22.02;;;;;;;;;;4248221;28;20050;-58
2023/04/06 04:52:56;;;;;;;18.70;17.70;;;;;;;;;;4243585;28;20407;-58
2023/04/06 04:55:17;;;;;;;21.30;20.10;;;;;;;;;;4246736;28;20096;-58
2023/04/06 04:57:38;;;;;;;20.08;19.25;;;;;;;;;;4245786;28;20051;-58
2023/04/06 04:59:58;;;;;;;20.92;19.63;;;;;;;;;;4248444;28;20046;-58
2023/04/06 05:02:18;;;;;;;29.17;27.88;;;;;;;;;;4245720;28;20046;-58
2023/04/06 05:04:39;;;;;;;19.80;18.83;;;;;;;;;;4249739;28;20038;-58
2023/04/06 05:07:03;;;;;;;19.70;18.23;;;;;;;;;;4244850;28;20046;-58
2023/04/06 05:09:23;;;;;;;24.40;22.13;;;;;;;;;;4248446;28;20321;-58
2023/04/06 05:11:43;;;;;;;17.88;17.02;;;;;;;;;;4251450;28;20070;-58
2023/04/06 05:14:03;;;;;;;18.05;16.85;;;;;;;;;;4247376;28;20074;-58
2023/04/06 05:16:23;;;;;;;19.55;17.80;;;;;;;;;;4243920;28;20055;-57
2023/04/06 05:18:43;;;;;;;20.20;18.95;;;;;;;;;;4249016;28;20047;-58
2023/04/06 05:21:04;;;;;;;29.63;28.08;;;;;;;;;;4247933;28;20046;-57
2023/04/06 05:23:24;;;;;;;44.83;42.58;;;;;;;;;;4248984;28;20165;-56
2023/04/06 05:25:44;;;;;;;42.05;39.78;;;;;;;;;;4245013;28;20438;-56
2023/04/06 05:28:05;;;;;;;40.38;38.42;;;;;;;;;;4251395;28;20089;-56
2023/04/06 05:30:25;;;;;;;41.45;39.72;;;;;;;;;;4246741;28;20078;-56
2023/04/06 05:32:45;;;;;;;41.33;39.35;;;;;;;;;;4246880;28;20481;-56
2023/04/06 05:35:06;;;;;;;38.22;36.72;;;;;;;;;;4245600;28;20059;-56
2023/04/06 05:37:26;;;;;;;34.60;32.53;;;;;;;;;;4247328;28;20054;-56
2023/04/06 05:39:46;;;;;;;30.27;28.88;;;;;;;;;;4245497;28;20076;-56
2023/04/06 05:42:06;;;;;;;37.35;35.60;;;;;;;;;;4244901;28;20147;-56
2023/04/06 05:44:26;;;;;;;29.92;28.42;;;;;;;;;;4248864;28;20050;-56
2023/04/06 05:46:46;;;;;;;31.90;30.25;;;;;;;;;;4253501;28;20284;-56
2023/04/06 05:49:07;;;;;;;21.50;20.30;;;;;;;;;;4251504;28;20037;-56
2023/04/06 05:51:27;;;;;;;21.33;20.02;;;;;;;;;;4254018;28;20281;-56
2023/04/06 05:53:47;;;;;;;32.13;30.40;;;;;;;;;;4253934;28;20239;-56
2023/04/06 05:56:08;;;;;;;39.78;37.85;;;;;;;;;;4248938;28;20366;-56
2023/04/06 05:58:28;;;;;;;22.77;21.70;;;;;;;;;;4244618;28;20054;-57
2023/04/06 06:00:49;;;;;;;32.35;31.08;;;;;;;;;;4244791;28;20088;-56
2023/04/06 06:03:10;;;;;;;34.60;33.00;;;;;;;;;;4245808;28;20078;-57
2023/04/06 06:05:30;;;;;;;38.20;36.53;;;;;;;;;;4246675;28;20042;-56
2023/04/06 06:07:51;;;;;;;24.88;23.70;;;;;;;;;;4250116;28;20076;-56
2023/04/06 06:10:11;;;;;;;23.33;22.23;;;;;;;;;;4251171;28;20041;-57
2023/04/06 06:12:31;;;;;;;20.38;19.23;;;;;;;;;;4244375;28;20050;-56
2023/04/06 06:14:51;;;;;;;16.08;15.57;;;;;;;;;;4248387;28;20380;-57
2023/04/06 06:17:11;;;;;;;16.83;15.77;;;;;;;;;;4250495;28;20084;-56
2023/04/06 06:19:32;;;;;;;15.88;14.93;;;;;;;;;;4242091;28;20093;-56
2023/04/06 06:21:52;;;;;;;19.02;17.50;;;;;;;;;;4245430;28;20045;-56
2023/04/06 06:24:12;;;;;;;17.90;16.98;;;;;;;;;;4249213;28;20106;-56
2023/04/06 06:26:32;;;;;;;18.75;17.48;;;;;;;;;;4243076;28;20337;-56
2023/04/06 06:28:53;;;;;;;16.05;15.25;;;;;;;;;;4242524;28;20084;-56
2023/04/06 06:31:13;;;;;;;16.67;15.70;;;;;;;;;;4247267;28;20046;-56
2023/04/06 06:33:33;;;;;;;14.07;13.15;;;;;;;;;;4245234;28;20280;-56
2023/04/06 06:35:53;;;;;;;14.48;13.57;;;;;;;;;;4241582;28;20054;-56
2023/04/06 06:38:14;;;;;;;16.98;15.77;;;;;;;;;;4247748;28;20284;-56
2023/04/06 06:40:34;;;;;;;18.55;16.75;;;;;;;;;;4247035;28;20055;-56
2023/04/06 06:42:55;;;;;;;17.95;16.35;;;;;;;;;;4242162;28;20120;-57
2023/04/06 06:45:15;;;;;;;16.85;15.40;;;;;;;;;;4243595;28;20050;-58
2023/04/06 06:47:35;;;;;;;17.83;16.48;;;;;;;;;;4248171;28;20065;-56
2023/04/06 06:49:55;;;;;;;17.00;15.63;;;;;;;;;;4246167;28;20038;-57
2023/04/06 06:52:16;;;;;;;18.02;16.33;;;;;;;;;;4244763;28;20399;-56
2023/04/06 06:54:36;;;;;;;17.30;15.60;;;;;;;;;;4254058;28;20242;-56
2023/04/06 06:56:56;;;;;;;16.27;14.85;;;;;;;;;;4245364;28;20061;-57
2023/04/06 06:59:17;;;;;;;14.15;13.10;;;;;;;;;;4245677;28;20407;-56
2023/04/06 07:01:37;;;;;;;14.35;13.30;;;;;;;;;;4243888;28;20235;-58
2023/04/06 07:03:58;;;;;;;15.18;13.98;;;;;;;;;;4243070;28;20302;-57
2023/04/06 07:06:20;;;;;;;13.45;12.70;;;;;;;;;;4245334;28;20374;-56
2023/04/06 07:08:41;;;;;;;12.48;11.73;;;;;;;;;;4244952;28;20050;-57
2023/04/06 07:11:01;;;;;;;11.00;10.60;;;;;;;;;;4243090;28;20054;-57
2023/04/06 07:13:23;;;;;;;10.88;10.38;;;;;;;;;;4244229;28;20046;-57
2023/04/06 07:15:43;;;;;;;13.25;12.27;;;;;;;;;;4243352;28;20046;-57
2023/04/06 07:18:03;;;;;;;11.95;11.10;;;;;;;;;;4247590;27;20052;-57
2023/04/06 07:20:23;;;;;;;12.48;11.30;;;;;;;;;;4248344;28;20084;-57
2023/04/06 07:22:44;;;;;;;37.15;24.02;;;;;;;;;;4242138;28;20054;-57
2023/04/06 07:25:05;;;;;;;17.23;15.52;;;;;;;;;;4244857;28;20088;-57
2023/04/06 07:27:25;;;;;;;12.70;11.90;;;;;;;;;;4245783;28;20039;-57
2023/04/06 07:29:46;;;;;;;10.40;9.88;;;;;;;;;;4250197;28;20072;-56
2023/04/06 07:32:06;;;;;;;11.52;10.90;;;;;;;;;;4228933;28;20085;-56
2023/04/06 07:34:26;;;;;;;17.55;14.48;;;;;;;;;;4245297;28;20066;-56
2023/04/06 07:36:47;;;;;;;23.98;16.30;;;;;;;;;;4246381;27;20054;-57
2023/04/06 07:39:07;;;;;;;10.73;9.70;;;;;;;;;;4247006;28;20244;-57
2023/04/06 07:41:28;;;;;;;15.80;14.45;;;;;;;;;;4241974;28;20047;-57
2023/04/06 07:43:48;;;;;;;11.90;10.88;;;;;;;;;;4248183;28;20235;-56
2023/04/06 07:46:09;;;;;;;15.13;13.63;;;;;;;;;;4244044;28;20092;-56
2023/04/06 07:48:29;;;;;;;8.90;8.32;;;;;;;;;;4245595;28;20223;-56
2023/04/06 07:50:50;;;;;;;11.65;10.85;;;;;;;;;;4249379;28;20051;-57
2023/04/06 07:53:10;;;;;;;7.78;7.28;;;;;;;;;;4247145;28;20054;-57
2023/04/06 07:55:31;;;;;;;7.88;7.40;;;;;;;;;;4242234;28;20047;-57
2023/04/06 07:57:51;;;;;;;6.60;6.38;;;;;;;;;;4247643;28;20050;-57
2023/04/06 08:00:11;;;;;;;7.05;6.75;;;;;;;;;;4242317;28;20069;-57
2023/04/06 08:02:32;;;;;;;7.13;6.40;;;;;;;;;;4247543;28;20080;-57
2023/04/06 08:04:52;;;;;;;7.22;6.80;;;;;;;;;;4242034;28;20046;-58
2023/04/06 08:07:13;;;;;;;6.47;6.38;;;;;;;;;;4247204;28;20118;-57
2023/04/06 08:09:33;;;;;;;5.43;5.32;;;;;;;;;;4243067;28;20330;-57
2023/04/06 08:11:54;;;;;;;5.10;4.90;;;;;;;;;;4247333;28;20082;-57
2023/04/06 08:14:15;;;;;;;5.13;5.03;;;;;;;;;;4245780;28;20111;-57
2023/04/06 08:16:35;;;;;;;5.72;5.45;;;;;;;;;;4247559;28;20047;-57
2023/04/06 08:18:55;;;;;;;4.57;4.40;;;;;;;;;;4250803;28;20042;-57
2023/04/06 08:21:16;;;;;;;4.40;4.30;;;;;;;;;;4246998;28;20046;-57
2023/04/06 08:23:36;;;;;;;4.85;4.68;;;;;;;;;;4251779;28;20272;-57
2023/04/06 08:25:56;;;;;;;5.30;4.97;;;;;;;;;;4246318;28;20043;-57
2023/04/06 08:28:16;;;;;;;5.18;4.97;;;;;;;;;;4244648;28;20081;-57
2023/04/06 08:30:37;;;;;;;4.97;4.65;;;;;;;;;;4245762;28;20047;-58
2023/04/06 08:32:57;;;;;;;5.05;4.85;;;;;;;;;;4251489;28;20054;-57
2023/04/06 08:35:17;;;;;;;5.75;5.65;;;;;;;;;;4247906;28;20038;-57
2023/04/06 08:37:38;;;;;;;4.65;4.43;;;;;;;;;;4250736;28;20065;-57
2023/04/06 08:39:59;;;;;;;5.85;5.55;;;;;;;;;;4235231;28;20074;-57
2023/04/06 08:42:22;;;;;;;4.93;4.72;;;;;;;;;;4251300;28;20042;-57
2023/04/06 08:44:42;;;;;;;4.35;4.15;;;;;;;;;;4251933;28;20115;-57
2023/04/06 08:47:05;;;;;;;5.55;5.35;;;;;;;;;;4248953;28;20273;-57
2023/04/06 08:49:25;;;;;;;5.18;4.97;;;;;;;;;;4248103;28;20076;-57
2023/04/06 08:51:47;;;;;;;5.40;5.20;;;;;;;;;;4247830;28;20104;-57
2023/04/06 08:54:07;;;;;;;4.70;4.55;;;;;;;;;;4250229;28;20072;-57
2023/04/06 08:56:29;;;;;;;4.40;4.20;;;;;;;;;;4244864;28;20234;-58
2023/04/06 08:58:49;;;;;;;4.82;4.63;;;;;;;;;;4248970;28;20400;-57
2023/04/06 09:01:12;;;;;;;6.32;6.03;;;;;;;;;;4246627;28;20395;-57
2023/04/06 09:03:33;;;;;;;7.90;7.10;;;;;;;;;;4249887;28;20087;-58
2023/04/06 09:05:54;;;;;;;4.90;4.47;;;;;;;;;;4246448;28;20049;-58
2023/04/06 09:08:14;;;;;;;4.75;4.60;;;;;;;;;;4249317;28;20053;-57
2023/04/06 09:10:35;;;;;;;5.03;4.82;;;;;;;;;;4244753;28;20042;-58
2023/04/06 09:13:03;;;;;;;4.90;4.70;;;;;;;;;;4249629;28;20050;-57
2023/04/06 09:15:23;;;;;;;4.78;4.68;;;;;;;;;;4250090;28;20047;-57
2023/04/06 09:17:46;;;;;;;5.40;5.13;;;;;;;;;;4245852;28;20050;-57
2023/04/06 09:20:06;;;;;;;5.25;5.05;;;;;;;;;;4245149;28;20234;-57
2023/04/06 09:22:35;;;;;;;6.72;6.32;;;;;;;;;;4249460;28;20140;-58
2023/04/06 09:24:55;;;;;;;4.47;4.38;;;;;;;;;;4250159;28;20397;-58
2023/04/06 09:27:15;;;;;;;4.50;4.30;;;;;;;;;;4247720;28;20387;-57
2023/04/06 09:29:36;;;;;;;4.63;4.43;;;;;;;;;;4233791;28;20050;-57
2023/04/06 09:32:06;;;;;;;4.65;4.35;;;;;;;;;;4247905;28;20051;-58
2023/04/06 09:34:26;;;;;;;5.30;5.10;;;;;;;;;;4251436;28;20235;-58
2023/04/06 09:36:47;;;;;;;3.85;3.75;;;;;;;;;;4246417;28;20111;-58
2023/04/06 09:39:07;;;;;;;8.45;7.95;;;;;;;;;;4249934;28;20391;-58
2023/04/06 09:41:28;;;;;;;4.57;4.38;;;;;;;;;;4248295;28;20369;-58
2023/04/06 09:43:50;;;;;;;7.93;7.15;;;;;;;;;;4249253;28;20058;-58
2023/04/06 09:46:10;;;;;;;4.50;4.40;;;;;;;;;;4246634;28;20046;-58
2023/04/06 09:48:31;;;;;;;5.55;5.25;;;;;;;;;;4250713;28;20141;-58
2023/04/06 09:50:55;;;;;;;7.78;7.38;;;;;;;;;;4249996;28;20051;-58
2023/04/06 09:53:15;;;;;;;4.03;3.92;;;;;;;;;;4246689;28;20047;-59
2023/04/06 09:55:39;;;;;;;4.78;4.60;;;;;;;;;;4243542;28;20227;-57
2023/04/06 09:58:05;;;;;;;5.63;5.22;;;;;;;;;;4245787;28;20361;-58
2023/04/06 10:00:26;;;;;;;7.28;6.97;;;;;;;;;;4243963;28;20039;-58
2023/04/06 10:02:49;;;;;;;6.97;6.15;;;;;;;;;;4243674;28;20403;-58
2023/04/06 10:05:13;;;;;;;4.75;4.55;;;;;;;;;;4243584;28;20084;-58
2023/04/06 10:07:34;;;;;;;4.72;4.53;;;;;;;;;;4243228;28;20077;-58
2023/04/06 10:10:01;;;;;;;3.92;3.83;;;;;;;;;;4243765;28;20278;-59
2023/04/06 10:12:22;;;;;;;3.92;3.60;;;;;;;;;;4253619;28;20080;-58
2023/04/06 10:14:43;;;;;;;4.78;4.68;;;;;;;;;;4243868;28;20291;-58
2023/04/06 10:17:04;;;;;;;4.45;4.30;;;;;;;;;;4239553;28;20278;-58
2023/04/06 10:19:26;;;;;;;4.68;4.47;;;;;;;;;;4244665;28;20676;-58
2023/04/06 10:21:49;;;;;;;3.92;3.83;;;;;;;;;;4245777;28;20047;-58
2023/04/06 10:24:10;;;;;;;4.50;4.30;;;;;;;;;;4244418;28;20043;-59
2023/04/06 10:26:31;;;;;;;3.47;3.38;;;;;;;;;;4244747;28;20108;-58
2023/04/06 10:28:51;;;;;;;4.50;4.30;;;;;;;;;;4251046;28;20068;-59
2023/04/06 10:31:12;;;;;;;3.35;3.35;;;;;;;;;;4243969;28;20058;-58
2023/04/06 10:33:32;;;;;;;5.10;5.00;;;;;;;;;;4248689;28;20054;-59
2023/04/06 10:35:52;;;;;;;4.13;3.55;;;;;;;;;;4250497;28;20411;-59
2023/04/06 10:38:20;;;;;;;3.55;3.40;;;;;;;;;;4241405;28;20361;-58
2023/04/06 10:40:42;;;;;;;3.50;3.30;;;;;;;;;;4247557;28;20038;-58
2023/04/06 10:43:13;;;;;;;4.07;3.78;;;;;;;;;;4247028;28;20081;-59
2023/04/06 10:45:34;;;;;;;3.55;3.45;;;;;;;;;;4248660;28;20071;-58
2023/04/06 10:47:55;;;;;;;3.13;2.70;;;;;;;;;;4245291;28;20046;-58
2023/04/06 10:50:19;;;;;;;2.83;2.72;;;;;;;;;;4247398;28;20092;-59
2023/04/06 10:52:40;;;;;;;3.50;3.20;;;;;;;;;;4248640;27;20234;-59
2023/04/06 10:55:00;;;;;;;3.13;2.92;;;;;;;;;;4244972;28;20076;-59
2023/04/06 10:57:28;;;;;;;3.88;3.78;;;;;;;;;;4244287;28;20085;-58
2023/04/06 10:59:48;;;;;;;3.40;3.30;;;;;;;;;;4247870;28;20365;-59
2023/04/06 11:02:09;;;;;;;3.53;3.42;;;;;;;;;;4246285;28;20065;-59
2023/04/06 11:04:30;;;;;;;2.97;2.88;;;;;;;;;;4244376;28;20038;-59
2023/04/06 11:06:50;;;;;;;4.03;3.72;;;;;;;;;;4243613;28;20055;-59
2023/04/06 11:09:11;;;;;;;3.03;2.92;;;;;;;;;;4247599;28;20076;-58
2023/04/06 11:11:31;;;;;;;3.67;3.38;;;;;;;;;;4244198;28;20078;-58
2023/04/06 11:13:56;;;;;;;3.53;3.42;;;;;;;;;;4245533;28;20081;-58
2023/04/06 11:16:17;;;;;;;3.80;3.70;;;;;;;;;;4244485;28;20068;-59
2023/04/06 11:18:37;;;;;;;2.17;2.08;;;;;;;;;;4245967;28;20046;-58
2023/04/06 11:20:58;;;;;;;3.20;2.95;;;;;;;;;;4239681;28;20058;-58
2023/04/06 11:23:25;;;;;;;2.55;2.42;;;;;;;;;;4232387;28;20082;-59
2023/04/06 11:25:51;;;;;;;3.40;3.20;;;;;;;;;;4248259;28;20088;-59
2023/04/06 11:28:11;;;;;;;2.95;2.85;;;;;;;;;;4243099;28;20047;-59
2023/04/06 11:30:31;;;;;;;2.53;2.42;;;;;;;;;;4249721;28;20165;-59
2023/04/06 11:32:52;;;;;;;2.55;2.55;;;;;;;;;;4252228;28;20042;-59
2023/04/06 11:35:22;;;;;;;2.45;2.45;;;;;;;;;;4241593;28;20046;-58
2023/04/06 11:37:43;;;;;;;2.03;2.00;;;;;;;;;;4249906;28;20039;-59
2023/04/06 11:40:04;;;;;;;1.85;1.85;;;;;;;;;;4249044;28;20084;-59
2023/04/06 11:42:25;;;;;;;2.33;2.33;;;;;;;;;;4250405;28;20091;-59
2023/04/06 11:44:45;;;;;;;2.00;2.00;;;;;;;;;;4246372;28;20037;-57
2023/04/06 11:47:07;;;;;;;1.70;1.70;;;;;;;;;;4249140;28;20073;-57
2023/04/06 11:49:28;;;;;;;2.22;2.13;;;;;;;;;;4244445;28;20051;-57
2023/04/06 11:51:48;;;;;;;2.60;2.53;;;;;;;;;;4249464;28;20281;-57
2023/04/06 11:54:08;;;;;;;1.73;1.73;;;;;;;;;;4241751;28;20098;-57
2023/04/06 11:56:30;;;;;;;2.20;1.67;;;;;;;;;;4247926;28;20050;-57
2023/04/06 11:58:50;;;;;;;2.83;2.50;;;;;;;;;;4245224;28;20050;-58
2023/04/06 12:01:10;;;;;;;2.15;2.05;;;;;;;;;;4249108;28;20086;-57
2023/04/06 12:03:30;;;;;;;2.58;2.03;;;;;;;;;;4241164;28;20058;-57
2023/04/06 12:05:51;;;;;;;1.63;1.63;;;;;;;;;;4248101;28;20058;-57
2023/04/06 12:08:11;;;;;;;1.73;1.55;;;;;;;;;;4246190;28;20042;-57
2023/04/06 12:10:31;;;;;;;1.88;1.88;;;;;;;;;;4247465;28;20261;-56
2023/04/06 12:12:51;;;;;;;1.80;1.70;;;;;;;;;;4254340;28;20093;-57
2023/04/06 12:15:12;;;;;;;2.08;2.05;;;;;;;;;;4249139;28;20046;-57
2023/04/06 12:17:32;;;;;;;2.00;2.00;;;;;;;;;;4252001;28;20045;-57
2023/04/06 12:19:52;;;;;;;1.70;1.60;;;;;;;;;;4248943;28;20054;-57
2023/04/06 12:22:12;;;;;;;1.70;1.60;;;;;;;;;;4253723;28;20128;-57
2023/04/06 12:24:33;;;;;;;1.60;1.60;;;;;;;;;;4249079;28;20084;-57
2023/04/06 12:26:53;;;;;;;1.52;1.42;;;;;;;;;;4252176;28;20111;-57
2023/04/06 12:29:29;;;;;;;1.63;1.50;;;;;;;;;;4251679;28;20054;-57
2023/04/06 12:31:50;;;;;;;1.45;1.45;;;;;;;;;;4245512;28;20084;-57
2023/04/06 12:34:11;;;;;;;1.52;1.52;;;;;;;;;;4248609;28;20081;-57
2023/04/06 12:36:31;;;;;;;1.50;1.50;;;;;;;;;;4245430;28;20070;-60
2023/04/06 12:38:52;;;;;;;1.70;1.70;;;;;;;;;;4250430;28;20359;-59
2023/04/06 12:41:12;;;;;;;1.77;1.67;;;;;;;;;;4248980;28;20049;-60
2023/04/06 12:43:33;;;;;;;1.45;1.33;;;;;;;;;;4248246;28;20107;-60
2023/04/06 12:45:53;;;;;;;1.80;1.42;;;;;;;;;;4244078;28;20047;-60
2023/04/06 12:48:13;;;;;;;1.50;1.50;;;;;;;;;;4253035;28;20046;-60
2023/04/06 12:50:33;;;;;;;1.30;1.30;;;;;;;;;;4251303;28;20038;-60
2023/04/06 12:52:53;;;;;;;1.60;1.60;;;;;;;;;;4249187;28;20046;-60
2023/04/06 12:55:13;;;;;;;32.50;19.92;;;;;;;;;;4246621;28;20361;-60
2023/04/06 12:57:34;;;;;;;85.70;45.60;;;;;;;;;;4250614;28;20088;-60
2023/04/06 12:59:54;;;;;;;2.92;2.72;;;;;;;;;;4249937;28;20043;-60
2023/04/06 13:02:15;;;;;;;1.65;1.60;;;;;;;;;;4249547;28;20054;-60
2023/04/06 13:04:36;;;;;;;1.42;1.33;;;;;;;;;;4248857;28;20065;-61
2023/04/06 13:06:56;;;;;;;2.53;1.75;;;;;;;;;;4247605;28;20043;-60
2023/04/06 13:09:16;;;;;;;1.80;1.80;;;;;;;;;;4253391;28;20037;-60
2023/04/06 13:11:37;;;;;;;1.98;1.75;;;;;;;;;;4249508;28;20111;-60
2023/04/06 13:13:57;;;;;;;1.63;1.63;;;;;;;;;;4246091;28;20042;-60
2023/04/06 13:16:17;;;;;;;1.45;1.45;;;;;;;;;;4247450;27;20058;-60
2023/04/06 13:18:38;;;;;;;1.65;1.65;;;;;;;;;;4244362;28;20081;-60
2023/04/06 13:20:59;;;;;;;1.60;1.50;;;;;;;;;;4245729;28;20242;-60
2023/04/06 13:23:19;;;;;;;2.25;1.33;;;;;;;;;;4246564;28;20123;-60
2023/04/06 13:25:39;;;;;;;1.80;1.70;;;;;;;;;;4245712;28;20089;-60
2023/04/06 13:28:00;;;;;;;2.15;2.03;;;;;;;;;;4243612;28;20046;-60
2023/04/06 13:30:21;;;;;;;1.70;1.60;;;;;;;;;;4246789;28;20081;-59
2023/04/06 13:32:41;;;;;;;1.90;1.50;;;;;;;;;;4246966;28;20080;-60
2023/04/06 13:35:03;;;;;;;1.60;1.60;;;;;;;;;;4247026;28;20293;-60
2023/04/06 13:37:23;;;;;;;1.30;1.30;;;;;;;;;;4253851;27;20118;-60
2023/04/06 13:39:44;;;;;;;1.30;1.30;;;;;;;;;;4247408;28;20039;-60
2023/04/06 13:42:04;;;;;;;1.73;1.70;;;;;;;;;;4249138;28;20046;-60
2023/04/06 13:44:24;;;;;;;1.30;1.30;;;;;;;;;;4246967;28;20047;-60
2023/04/06 13:46:45;;;;;;;1.20;1.20;;;;;;;;;;4252360;28;20043;-60
2023/04/06 13:49:05;;;;;;;2.25;1.60;;;;;;;;;;4247094;28;20038;-60